createdAt,value
2023-04-15T00:02:17.440Z,17.49
2023-04-15T00:04:48.667Z,17.53
2023-04-15T00:07:19.531Z,17.36
2023-04-15T00:09:51.961Z,17.47
2023-04-15T00:12:23.728Z,17.34
2023-04-15T00:14:53.536Z,17.36
2023-04-15T00:17:23.652Z,17.59
2023-04-15T00:19:53.336Z,17.28
2023-04-15T00:22:23.082Z,17.44
2023-04-15T00:24:52.958Z,17.26
2023-04-15T00:27:22.582Z,17.64
2023-04-15T00:29:52.276Z,17.73
2023-04-15T00:32:22.469Z,17.94
2023-04-15T00:34:52.637Z,17.90
2023-04-15T00:37:24.935Z,17.96
2023-04-15T00:39:54.634Z,17.94
2023-04-15T00:42:24.533Z,17.96
2023-04-15T00:44:56.591Z,17.93
2023-04-15T00:47:26.741Z,17.59
2023-04-15T00:49:56.323Z,17.80
2023-04-15T00:52:32.699Z,17.51
2023-04-15T00:55:06.505Z,17.68
2023-04-15T00:57:36.460Z,17.76
2023-04-15T01:00:09.536Z,17.56
2023-04-15T01:02:39.976Z,17.56
2023-04-15T01:05:10.123Z,17.62
2023-04-15T01:07:39.826Z,17.43
2023-04-15T01:10:10.081Z,17.33
2023-04-15T01:12:41.100Z,17.16
2023-04-15T01:15:12.566Z,17.10
2023-04-15T01:17:42.678Z,16.89
2023-04-15T01:20:13.827Z,16.80
2023-04-15T01:22:43.652Z,16.99
2023-04-15T01:25:18.402Z,17.01
2023-04-15T01:27:48.172Z,16.82
2023-04-15T01:30:17.967Z,16.81
2023-04-15T01:32:47.602Z,16.51
2023-04-15T01:35:17.213Z,16.58
2023-04-15T01:37:47.844Z,16.51
2023-04-15T01:40:18.165Z,16.40
2023-04-15T01:42:48.707Z,16.37
2023-04-15T01:45:19.069Z,16.18
2023-04-15T01:47:53.919Z,16.09
2023-04-15T01:50:23.560Z,15.85
2023-04-15T01:52:53.668Z,15.56
2023-04-15T01:55:26.598Z,15.34
2023-04-15T01:57:57.579Z,15.57
2023-04-15T02:00:27.337Z,15.00
2023-04-15T02:02:59.546Z,14.79
2023-04-15T02:05:29.354Z,15.20
2023-04-15T02:08:02.599Z,15.19
2023-04-15T02:10:32.730Z,15.14
2023-04-15T02:13:02.726Z,14.92
2023-04-15T02:15:32.478Z,15.09
2023-04-15T02:18:02.782Z,15.22
2023-04-15T02:20:35.903Z,15.24
2023-04-15T02:23:08.795Z,15.01
2023-04-15T02:25:53.423Z,15.12
2023-04-15T02:28:29.964Z,15.28
2023-04-15T02:31:01.349Z,15.42
2023-04-15T02:33:34.128Z,15.28
2023-04-15T02:36:03.985Z,15.22
2023-04-15T02:38:34.580Z,15.42
2023-04-15T02:41:04.538Z,15.37
2023-04-15T02:43:36.794Z,15.22
2023-04-15T02:46:09.322Z,15.43
2023-04-15T02:48:45.049Z,15.35
2023-04-15T02:51:21.219Z,15.22
2023-04-15T02:53:51.582Z,15.32
2023-04-15T02:56:21.310Z,15.19
2023-04-15T02:58:52.327Z,15.29
2023-04-15T03:01:22.151Z,15.40
2023-04-15T03:03:51.940Z,15.19
2023-04-15T03:06:21.666Z,15.40
2023-04-15T03:08:58.613Z,15.27
2023-04-15T03:11:35.406Z,15.37
2023-04-15T03:14:06.019Z,15.47
2023-04-15T03:16:35.788Z,15.49
2023-04-15T03:19:05.631Z,15.33
2023-04-15T03:21:35.245Z,15.39
2023-04-15T03:24:05.081Z,15.47
2023-04-15T03:26:34.935Z,15.12
2023-04-15T03:29:13.354Z,15.29
2023-04-15T03:31:46.105Z,15.24
2023-04-15T03:34:18.809Z,15.37
2023-04-15T03:36:49.114Z,15.38
2023-04-15T03:39:21.977Z,15.43
2023-04-15T03:41:51.769Z,15.41
2023-04-15T03:44:21.524Z,15.35
2023-04-15T03:46:51.184Z,15.38
2023-04-15T03:49:21.431Z,15.46
2023-04-15T03:51:51.138Z,15.19
2023-04-15T03:54:24.304Z,15.28
2023-04-15T03:56:54.024Z,15.27
2023-04-15T03:59:23.842Z,15.16
2023-04-15T04:01:53.811Z,15.02
2023-04-15T04:04:25.748Z,15.05
2023-04-15T04:06:55.409Z,15.37
2023-04-15T04:09:25.149Z,15.40
2023-04-15T04:11:54.882Z,15.37
2023-04-15T04:14:32.993Z,15.33
2023-04-15T04:17:06.007Z,15.33
2023-04-15T04:19:38.873Z,15.30
2023-04-15T04:22:08.766Z,15.34
2023-04-15T04:24:38.452Z,15.31
2023-04-15T04:27:08.170Z,15.37
2023-04-15T04:29:37.789Z,15.34
2023-04-15T04:32:07.757Z,15.46
2023-04-15T04:34:37.716Z,15.44
2023-04-15T04:37:08.854Z,15.43
2023-04-15T04:39:38.540Z,15.56
2023-04-15T04:42:08.143Z,15.43
2023-04-15T04:44:37.784Z,15.48
2023-04-15T04:47:10.255Z,15.51
2023-04-15T04:49:40.175Z,15.45
2023-04-15T04:52:09.788Z,15.54
2023-04-15T04:54:39.371Z,15.63
2023-04-15T04:57:09.717Z,15.64
2023-04-15T04:59:39.613Z,15.52
2023-04-15T05:02:09.819Z,15.55
2023-04-15T05:04:39.468Z,15.50
2023-04-15T05:07:09.788Z,15.44
2023-04-15T05:09:39.488Z,15.43
2023-04-15T05:12:10.572Z,15.70
2023-04-15T05:14:41.377Z,15.30
2023-04-15T05:17:11.298Z,15.60
2023-04-15T05:19:40.931Z,15.87
2023-04-15T05:22:10.819Z,15.93
2023-04-15T05:24:40.558Z,15.93
2023-04-15T05:27:14.710Z,16.02
2023-04-15T05:29:47.483Z,15.88
2023-04-15T05:32:17.259Z,15.55
2023-04-15T05:34:47.134Z,16.04
2023-04-15T05:37:17.258Z,16.13
2023-04-15T05:39:46.967Z,16.03
2023-04-15T05:42:17.080Z,16.01
2023-04-15T05:44:46.822Z,16.25
2023-04-15T05:47:19.544Z,16.29
2023-04-15T05:49:49.222Z,16.37
2023-04-15T05:52:19.001Z,16.43
2023-04-15T05:54:48.662Z,16.34
2023-04-15T05:57:18.340Z,16.51
2023-04-15T05:59:48.273Z,16.49
2023-04-15T06:02:17.995Z,16.36
2023-04-15T06:04:50.931Z,16.35
2023-04-15T06:07:20.672Z,16.21
2023-04-15T06:09:50.289Z,16.22
2023-04-15T06:12:20.011Z,16.29
2023-04-15T06:14:49.678Z,16.27
2023-04-15T06:17:22.709Z,16.50
2023-04-15T06:19:57.068Z,16.54
2023-04-15T06:22:29.905Z,16.61
2023-04-15T06:24:59.964Z,16.15
2023-04-15T06:27:30.292Z,16.31
2023-04-15T06:30:06.328Z,16.15
2023-04-15T06:32:39.242Z,16.52
2023-04-15T06:35:09.191Z,16.54
2023-04-15T06:37:38.842Z,16.64
2023-04-15T06:40:12.272Z,16.30
2023-04-15T06:42:42.197Z,16.58
2023-04-15T06:45:12.298Z,16.69
2023-04-15T06:47:43.407Z,16.64
2023-04-15T06:50:13.431Z,16.64
2023-04-15T06:52:43.443Z,16.64
2023-04-15T06:55:16.739Z,16.69
2023-04-15T06:57:46.606Z,16.66
2023-04-15T07:00:19.256Z,16.65
2023-04-15T07:02:51.523Z,16.69
2023-04-15T07:05:21.716Z,16.77
2023-04-15T07:07:52.780Z,16.71
2023-04-15T07:10:23.328Z,16.73
2023-04-15T07:12:59.180Z,16.83
2023-04-15T07:15:28.854Z,16.79
2023-04-15T07:17:58.675Z,16.74
2023-04-15T07:20:28.826Z,16.80
2023-04-15T07:22:59.078Z,16.72
2023-04-15T07:25:29.037Z,16.96
2023-04-15T07:27:58.757Z,16.88
2023-04-15T07:30:28.395Z,16.92
2023-04-15T07:33:01.325Z,17.06
2023-04-15T07:35:31.060Z,16.97
2023-04-15T07:38:03.864Z,17.02
2023-04-15T07:40:36.777Z,16.92
2023-04-15T07:43:06.887Z,16.83
2023-04-15T07:45:39.454Z,16.97
2023-04-15T07:48:09.950Z,16.78
2023-04-15T07:50:39.734Z,16.71
2023-04-15T07:53:09.923Z,16.75
2023-04-15T07:55:40.065Z,16.80
2023-04-15T07:58:09.788Z,16.91
2023-04-15T08:00:42.295Z,16.82
2023-04-15T08:03:12.125Z,16.93
2023-04-15T08:05:41.949Z,16.73
2023-04-15T08:08:12.013Z,16.86
2023-04-15T08:10:41.715Z,16.83
2023-04-15T08:13:11.312Z,16.82
2023-04-15T08:15:40.989Z,16.67
2023-04-15T08:18:10.849Z,16.50
2023-04-15T08:20:43.476Z,16.67
2023-04-15T08:23:13.134Z,16.71
2023-04-15T08:25:42.797Z,16.62
2023-04-15T08:28:12.937Z,16.55
2023-04-15T08:30:42.920Z,16.42
2023-04-15T08:33:12.664Z,16.45
2023-04-15T08:35:46.882Z,16.40
2023-04-15T08:38:16.542Z,16.41
2023-04-15T08:40:55.290Z,16.29
2023-04-15T08:43:28.206Z,16.13
2023-04-15T08:46:01.558Z,16.17
2023-04-15T08:48:37.418Z,16.21
2023-04-15T08:51:07.135Z,16.08
2023-04-15T08:53:37.040Z,16.03
2023-04-15T08:56:10.400Z,15.91
2023-04-15T08:58:41.259Z,15.74
2023-04-15T09:01:11.001Z,15.79
2023-04-15T09:03:41.532Z,15.43
2023-04-15T09:06:11.489Z,15.48
2023-04-15T09:08:41.136Z,15.34
2023-04-15T09:11:13.902Z,15.39
2023-04-15T09:13:46.485Z,15.70
2023-04-15T09:16:17.364Z,15.76
2023-04-15T09:18:47.236Z,15.61
2023-04-15T09:21:20.805Z,15.50
2023-04-15T09:24:04.488Z,15.27
2023-04-15T09:26:38.969Z,15.23
2023-04-15T09:29:16.039Z,15.32
2023-04-15T09:31:45.782Z,15.44
2023-04-15T09:34:15.361Z,15.51
2023-04-15T09:36:51.656Z,15.23
2023-04-15T09:39:21.579Z,15.06
2023-04-15T09:42:08.433Z,15.13
2023-04-15T09:44:38.247Z,15.22
2023-04-15T09:47:08.486Z,15.12
2023-04-15T09:49:38.583Z,14.74
2023-04-15T09:52:08.256Z,14.38
2023-04-15T09:54:41.297Z,14.72
2023-04-15T09:57:14.925Z,14.27
2023-04-15T09:59:45.323Z,14.16
2023-04-15T10:02:16.317Z,14.22
2023-04-15T10:04:46.488Z,13.87
2023-04-15T10:07:16.408Z,13.68
2023-04-15T10:09:50.723Z,13.39
2023-04-15T10:12:20.872Z,13.48
2023-04-15T10:15:01.885Z,13.20
2023-04-15T10:17:38.574Z,13.25
2023-04-15T10:20:09.264Z,13.54
2023-04-15T10:22:39.277Z,13.32
2023-04-15T10:25:09.369Z,13.18
2023-04-15T10:27:39.036Z,13.25
2023-04-15T10:30:09.396Z,13.44
2023-04-15T10:32:43.024Z,13.23
2023-04-15T10:35:21.972Z,12.85
2023-04-15T10:37:51.629Z,13.00
2023-04-15T10:40:33.038Z,12.85
2023-04-15T10:43:07.704Z,12.91
2023-04-15T10:45:41.233Z,12.95
2023-04-15T10:48:11.082Z,12.84
2023-04-15T10:50:41.083Z,12.62
2023-04-15T10:53:23.553Z,12.70
2023-04-15T10:55:53.505Z,12.88
2023-04-15T10:58:29.037Z,12.45
2023-04-15T11:01:01.648Z,12.40
2023-04-15T11:03:42.427Z,12.47
2023-04-15T11:06:13.706Z,12.36
2023-04-15T11:09:00.799Z,12.21
2023-04-15T11:12:10.054Z,11.97
2023-04-15T11:14:47.652Z,12.23
2023-04-15T11:17:17.604Z,12.17
2023-04-15T11:19:47.309Z,12.52
2023-04-15T11:22:17.097Z,12.32
2023-04-15T11:24:56.616Z,12.23
2023-04-15T11:27:26.559Z,12.28
2023-04-15T11:29:56.229Z,12.41
2023-04-15T11:32:31.942Z,12.57
2023-04-15T11:35:01.690Z,12.76
2023-04-15T11:37:33.187Z,12.59
2023-04-15T11:40:05.898Z,12.44
2023-04-15T11:42:49.065Z,12.50
2023-04-15T11:45:18.951Z,12.53
2023-04-15T11:47:55.306Z,12.30
2023-04-15T11:50:29.033Z,12.32
2023-04-15T11:53:08.145Z,12.18
2023-04-15T11:55:54.938Z,12.05
2023-04-15T11:58:29.394Z,12.23
2023-04-15T12:01:09.379Z,12.21
2023-04-15T12:03:48.432Z,12.01
2023-04-15T12:06:25.270Z,12.43
2023-04-15T12:08:57.666Z,12.29
2023-04-15T12:11:35.419Z,11.87
2023-04-15T12:14:32.079Z,11.91
2023-04-15T12:17:08.437Z,11.91
2023-04-15T12:19:50.398Z,12.05
2023-04-15T12:22:21.496Z,12.26
2023-04-15T12:24:58.959Z,12.20
2023-04-15T12:27:30.007Z,11.95
2023-04-15T12:30:09.633Z,11.85
2023-04-15T12:32:40.458Z,11.89
2023-04-15T12:35:11.968Z,11.98
2023-04-15T12:37:44.585Z,11.98
2023-04-15T12:40:14.327Z,12.09
2023-04-15T12:42:43.967Z,11.49
2023-04-15T12:45:16.347Z,11.55
2023-04-15T12:47:46.089Z,11.46
2023-04-15T12:50:15.846Z,11.54
2023-04-15T12:52:48.200Z,11.40
2023-04-15T12:55:18.836Z,11.60
2023-04-15T12:57:48.742Z,11.64
2023-04-15T13:00:21.075Z,11.40
2023-04-15T13:02:50.882Z,11.86
2023-04-15T13:05:20.913Z,11.32
2023-04-15T13:07:50.541Z,11.37
2023-04-15T13:10:20.312Z,11.45
2023-04-15T13:12:58.388Z,11.32
2023-04-15T13:15:28.057Z,11.46
2023-04-15T13:17:58.410Z,11.68
2023-04-15T13:20:29.054Z,11.36
2023-04-15T13:22:58.739Z,11.18
2023-04-15T13:25:28.632Z,11.22
2023-04-15T13:27:59.203Z,11.47
2023-04-15T13:30:43.406Z,11.65
2023-04-15T13:33:14.204Z,11.49
2023-04-15T13:35:44.706Z,11.87
2023-04-15T13:38:17.023Z,11.89
2023-04-15T13:40:46.974Z,11.59
2023-04-15T13:43:17.215Z,11.60
2023-04-15T13:45:48.415Z,11.41
2023-04-15T13:48:18.099Z,11.70
2023-04-15T13:50:47.820Z,11.78
2023-04-15T13:53:20.683Z,11.64
2023-04-15T13:56:06.747Z,11.37
2023-04-15T13:58:36.429Z,11.67
2023-04-15T14:01:09.302Z,11.50
2023-04-15T14:03:39.636Z,11.56
2023-04-15T14:06:09.810Z,11.25
2023-04-15T14:08:39.423Z,11.29
2023-04-15T14:11:12.023Z,11.13
2023-04-15T14:13:41.927Z,10.79
2023-04-15T14:16:11.619Z,11.14
2023-04-15T14:18:42.557Z,10.86
2023-04-15T14:21:15.339Z,11.15
2023-04-15T14:23:45.321Z,11.63
2023-04-15T14:26:15.740Z,11.28
2023-04-15T14:28:46.931Z,11.31
2023-04-15T14:31:16.758Z,11.26
2023-04-15T14:33:46.433Z,10.78
2023-04-15T14:36:16.029Z,10.58
2023-04-15T14:38:48.733Z,10.82
2023-04-15T14:41:19.009Z,10.87
2023-04-15T14:43:48.683Z,10.91
2023-04-15T14:46:18.610Z,11.32
2023-04-15T14:48:48.234Z,10.92
2023-04-15T14:51:18.771Z,11.02
2023-04-15T14:53:48.641Z,10.77
2023-04-15T14:56:18.296Z,10.96
2023-04-15T14:58:47.983Z,11.26
2023-04-15T15:01:17.886Z,11.34
2023-04-15T15:03:47.861Z,11.18
2023-04-15T15:06:17.959Z,11.07
2023-04-15T15:08:50.937Z,10.93
2023-04-15T15:11:20.600Z,10.63
2023-04-15T15:13:52.745Z,10.80
2023-04-15T15:16:25.471Z,10.57
2023-04-15T15:18:55.197Z,10.50
2023-04-15T15:21:25.379Z,10.69
2023-04-15T15:23:57.641Z,10.63
2023-04-15T15:26:29.917Z,10.72
2023-04-15T15:28:59.631Z,11.00
2023-04-15T15:31:29.493Z,10.80
2023-04-15T15:33:59.438Z,10.49
2023-04-15T15:36:29.777Z,10.04
2023-04-15T15:39:00.971Z,10.17
2023-04-15T15:41:31.613Z,10.33
2023-04-15T15:44:06.813Z,10.10
2023-04-15T15:46:36.572Z,10.29
2023-04-15T15:49:06.479Z,10.16
2023-04-15T15:51:39.292Z,9.88
2023-04-15T15:54:08.975Z,10.02
2023-04-15T15:56:39.989Z,10.28
2023-04-15T15:59:10.308Z,10.34
2023-04-15T16:01:40.009Z,10.48
2023-04-15T16:04:11.837Z,9.97
2023-04-15T16:06:42.376Z,9.91
2023-04-15T16:09:12.258Z,9.87
2023-04-15T16:11:42.913Z,9.75
2023-04-15T16:14:12.756Z,9.75
2023-04-15T16:16:42.648Z,9.81
2023-04-15T16:19:13.050Z,9.37
2023-04-15T16:21:42.951Z,9.64
2023-04-15T16:24:15.424Z,9.69
2023-04-15T16:26:45.095Z,9.71
2023-04-15T16:29:14.786Z,9.88
2023-04-15T16:31:44.435Z,9.88
2023-04-15T16:34:14.236Z,9.69
2023-04-15T16:36:44.006Z,9.75
2023-04-15T16:39:13.698Z,9.72
2023-04-15T16:41:44.427Z,9.76
2023-04-15T16:44:14.043Z,9.79
2023-04-15T16:46:43.720Z,9.57
2023-04-15T16:49:13.516Z,9.73
2023-04-15T16:51:43.214Z,9.48
2023-04-15T16:54:13.385Z,9.37
2023-04-15T16:56:43.127Z,9.23
2023-04-15T16:59:15.500Z,9.28
2023-04-15T17:01:45.931Z,9.63
2023-04-15T17:04:15.844Z,9.88
2023-04-15T17:06:51.935Z,9.80
2023-04-15T17:09:21.587Z,9.79
2023-04-15T17:11:51.256Z,9.84
2023-04-15T17:14:24.027Z,9.73
2023-04-15T17:16:53.612Z,9.72
2023-04-15T17:19:32.576Z,9.77
2023-04-15T17:22:02.736Z,9.67
2023-04-15T17:24:35.148Z,9.54
2023-04-15T17:27:04.813Z,9.32
2023-04-15T17:29:35.089Z,9.29
2023-04-15T17:32:05.248Z,9.22
2023-04-15T17:34:49.819Z,9.30
2023-04-15T17:37:20.590Z,9.85
2023-04-15T17:39:50.251Z,9.72
2023-04-15T17:42:20.021Z,9.59
2023-04-15T17:44:49.669Z,9.36
2023-04-15T17:47:21.957Z,9.44
2023-04-15T17:49:51.505Z,9.76
2023-04-15T17:52:21.747Z,9.59
2023-04-15T17:54:51.810Z,9.50
2023-04-15T17:57:22.480Z,9.54
2023-04-15T17:59:52.285Z,9.22
2023-04-15T18:02:22.238Z,9.29
2023-04-15T18:04:52.699Z,9.44
2023-04-15T18:07:22.753Z,9.24
2023-04-15T18:09:52.554Z,9.19
2023-04-15T18:12:22.294Z,9.21
2023-04-15T18:14:52.009Z,9.13
2023-04-15T18:17:21.977Z,9.23
2023-04-15T18:19:55.010Z,9.75
2023-04-15T18:22:27.405Z,9.34
2023-04-15T18:24:59.285Z,9.31
2023-04-15T18:27:30.090Z,9.59
2023-04-15T18:29:59.907Z,9.63
2023-04-15T18:32:31.937Z,9.63
2023-04-15T18:35:05.945Z,9.74
2023-04-15T18:37:35.636Z,9.50
2023-04-15T18:40:05.368Z,9.61
2023-04-15T18:42:35.031Z,9.53
2023-04-15T18:45:05.339Z,9.80
2023-04-15T18:47:35.341Z,10.15
2023-04-15T18:50:05.218Z,10.06
2023-04-15T18:52:35.670Z,9.87
2023-04-15T18:55:12.417Z,10.16
2023-04-15T18:57:45.811Z,9.75
2023-04-15T19:00:20.125Z,9.38
2023-04-15T19:02:50.012Z,9.75
2023-04-15T19:05:19.926Z,10.02
2023-04-15T19:07:49.940Z,10.06
2023-04-15T19:10:19.684Z,9.87
2023-04-15T19:12:49.256Z,9.57
2023-04-15T19:15:19.054Z,9.46
2023-04-15T19:17:48.942Z,9.58
2023-04-15T19:20:19.348Z,9.59
2023-04-15T19:22:49.097Z,9.60
2023-04-15T19:25:18.853Z,9.83
2023-04-15T19:27:49.045Z,9.74
2023-04-15T19:30:19.124Z,9.69
2023-04-15T19:32:48.907Z,9.52
2023-04-15T19:35:19.026Z,9.76
2023-04-15T19:37:49.884Z,9.42
2023-04-15T19:40:19.584Z,9.54
2023-04-15T19:42:49.318Z,9.25
2023-04-15T19:45:19.018Z,9.19
2023-04-15T19:47:48.691Z,9.43
2023-04-15T19:50:18.543Z,9.81
2023-04-15T19:52:48.551Z,9.70
2023-04-15T19:55:18.467Z,9.74
2023-04-15T19:57:48.159Z,9.98
2023-04-15T20:00:23.320Z,9.85
2023-04-15T20:02:53.158Z,10.39
2023-04-15T20:05:22.989Z,10.24
2023-04-15T20:07:56.354Z,10.43
2023-04-15T20:10:27.226Z,10.38
2023-04-15T20:12:57.194Z,10.21
2023-04-15T20:15:26.870Z,9.84
2023-04-15T20:17:56.592Z,10.22
2023-04-15T20:20:26.316Z,9.81
2023-04-15T20:22:56.342Z,9.37
2023-04-15T20:25:26.059Z,9.75
2023-04-15T20:27:55.736Z,9.57
2023-04-15T20:30:25.365Z,9.68
2023-04-15T20:32:55.038Z,9.70
2023-04-15T20:35:24.926Z,9.70
2023-04-15T20:37:54.776Z,9.92
2023-04-15T20:40:27.395Z,9.68
2023-04-15T20:42:57.485Z,9.32
2023-04-15T20:45:27.275Z,9.76
2023-04-15T20:47:57.653Z,9.92
2023-04-15T20:50:27.398Z,10.04
2023-04-15T20:52:57.699Z,9.95
2023-04-15T20:55:28.956Z,9.64
2023-04-15T20:58:02.963Z,9.47
2023-04-15T21:00:34.521Z,9.76
2023-04-15T21:03:07.442Z,9.58
2023-04-15T21:05:40.140Z,9.35
2023-04-15T21:08:11.259Z,9.38
2023-04-15T21:10:44.011Z,9.39
2023-04-15T21:13:14.688Z,9.38
2023-04-15T21:15:45.260Z,9.61
2023-04-15T21:18:17.941Z,9.77
2023-04-15T21:20:48.037Z,9.58
2023-04-15T21:23:17.617Z,9.41
2023-04-15T21:25:47.371Z,9.38
2023-04-15T21:28:17.065Z,9.44
2023-04-15T21:30:47.432Z,9.19
2023-04-15T21:33:19.897Z,9.45
2023-04-15T21:35:49.621Z,9.22
2023-04-15T21:38:20.800Z,9.49
2023-04-15T21:40:52.771Z,9.38
2023-04-15T21:43:27.478Z,9.32
2023-04-15T21:46:23.469Z,9.15
2023-04-15T21:48:47.795Z,9.89
2023-04-15T21:51:17.792Z,9.63
2023-04-15T21:53:50.302Z,9.51
2023-04-15T21:56:21.754Z,9.80
2023-04-15T21:58:51.495Z,9.43
2023-04-15T22:01:21.189Z,9.94
2023-04-15T22:03:51.776Z,9.85
2023-04-15T22:06:28.611Z,9.15
2023-04-15T22:08:58.261Z,9.68
2023-04-15T22:11:28.825Z,9.78
2023-04-15T22:13:59.715Z,9.89
2023-04-15T22:16:30.142Z,9.78
2023-04-15T22:19:02.651Z,9.89
2023-04-15T22:21:33.348Z,9.12
2023-04-15T22:24:32.973Z,9.80
2023-04-15T22:26:53.001Z,9.90
2023-04-15T22:29:22.720Z,9.80
2023-04-15T22:31:53.667Z,10.08
2023-04-15T22:34:23.560Z,9.85
2023-04-15T22:36:57.148Z,10.10
2023-04-15T22:39:29.464Z,10.13
2023-04-15T22:42:00.252Z,10.47
2023-04-15T22:44:29.882Z,9.68
2023-04-15T22:46:59.533Z,9.66
2023-04-15T22:49:29.307Z,10.11
2023-04-15T22:52:02.321Z,10.06
2023-04-15T22:54:32.988Z,10.07
2023-04-15T22:57:02.683Z,9.73
2023-04-15T22:59:32.485Z,10.17
2023-04-15T23:02:02.412Z,10.16
2023-04-15T23:04:32.658Z,10.11
2023-04-15T23:07:02.444Z,10.61
2023-04-15T23:09:32.754Z,10.72
2023-04-15T23:12:02.938Z,10.75
2023-04-15T23:14:34.782Z,10.73
2023-04-15T23:17:04.377Z,10.75
2023-04-15T23:19:35.255Z,10.81
2023-04-15T23:22:05.439Z,10.87
2023-04-15T23:24:35.127Z,10.60
2023-04-15T23:27:07.543Z,10.92
2023-04-15T23:29:37.933Z,11.22
2023-04-15T23:32:08.649Z,11.15
2023-04-15T23:34:38.311Z,11.14
2023-04-15T23:37:08.017Z,11.20
2023-04-15T23:39:37.839Z,11.33
2023-04-15T23:42:13.257Z,11.44
2023-04-15T23:44:42.858Z,11.37
2023-04-15T23:47:15.650Z,11.52
2023-04-15T23:49:45.284Z,10.80
2023-04-15T23:52:14.978Z,10.99
2023-04-15T23:54:51.373Z,11.01
2023-04-15T23:57:21.075Z,11.07
2023-04-15T23:59:50.891Z,11.17
